createdAt,value
2022-08-17T00:03:49.234Z,20.10
2022-08-17T00:13:59.447Z,19.90
2022-08-17T00:24:03.538Z,19.80
2022-08-17T00:34:10.033Z,19.90
2022-08-17T00:44:13.802Z,19.80
2022-08-17T00:54:24.048Z,19.70
2022-08-17T01:04:30.396Z,19.70
2022-08-17T01:14:35.928Z,19.60
2022-08-17T01:24:46.038Z,19.30
2022-08-17T01:34:50.884Z,19.30
2022-08-17T01:44:59.807Z,19.20
2022-08-17T01:55:05.758Z,19.30
2022-08-17T02:05:10.930Z,19.40
2022-08-17T02:15:16.720Z,19.00
2022-08-17T02:25:22.940Z,19.20
2022-08-17T02:35:29.471Z,19.10
2022-08-17T02:45:35.170Z,19.20
2022-08-17T02:55:41.594Z,19.20
2022-08-17T03:05:53.067Z,19.10
2022-08-17T03:15:56.694Z,19.00
2022-08-17T03:26:02.152Z,18.90
2022-08-17T03:36:07.865Z,18.70
2022-08-17T03:46:34.390Z,18.70
2022-08-17T03:56:45.518Z,18.70
2022-08-17T04:06:50.852Z,18.70
2022-08-17T04:16:54.561Z,18.80
2022-08-17T04:26:59.698Z,18.70
2022-08-17T04:37:03.454Z,18.50
2022-08-17T04:47:11.336Z,18.60
2022-08-17T04:57:16.934Z,18.70
2022-08-17T05:07:24.631Z,18.90
2022-08-17T05:17:29.935Z,19.00
2022-08-17T05:27:36.431Z,19.00
2022-08-17T05:37:40.131Z,19.10
2022-08-17T05:47:47.667Z,19.20
2022-08-17T05:58:08.962Z,19.50
2022-08-17T06:08:28.130Z,20.00
2022-08-17T06:18:39.787Z,20.50
2022-08-17T06:28:51.965Z,20.70
2022-08-17T06:39:10.512Z,20.80
2022-08-17T06:49:25.124Z,21.30
2022-08-17T06:59:55.643Z,21.50
2022-08-17T07:10:02.484Z,21.90
2022-08-17T07:20:10.771Z,22.40
2022-08-17T07:30:20.610Z,22.60
2022-08-17T07:40:30.869Z,22.70
2022-08-17T07:50:36.104Z,22.70
2022-08-17T08:00:41.216Z,23.00
2022-08-17T08:11:07.102Z,23.70
2022-08-17T08:21:19.552Z,24.00
2022-08-17T08:31:43.874Z,24.10
2022-08-17T08:41:58.406Z,23.70
2022-08-17T08:52:06.492Z,23.30
2022-08-17T09:02:40.746Z,23.60
2022-08-17T09:12:56.405Z,23.30
2022-08-17T09:23:07.860Z,23.20
2022-08-17T09:33:17.612Z,23.00
2022-08-17T09:43:32.159Z,23.60
2022-08-17T09:53:39.925Z,23.90
2022-08-17T10:04:12.119Z,24.80
2022-08-17T10:14:36.928Z,24.80
2022-08-17T10:25:22.066Z,25.00
2022-08-17T10:35:42.821Z,25.70
2022-08-17T10:46:09.531Z,26.00
2022-08-17T10:56:57.712Z,26.60
2022-08-17T11:07:22.370Z,26.70
2022-08-17T11:18:01.363Z,27.00
2022-08-17T11:28:15.523Z,26.60
2022-08-17T11:38:29.354Z,26.40
2022-08-17T11:48:59.967Z,26.20
2022-08-17T12:00:10.423Z,26.40
2022-08-17T12:10:17.252Z,27.00
2022-08-17T12:20:28.112Z,27.10
2022-08-17T12:30:31.923Z,27.20
2022-08-17T12:40:37.268Z,27.20
2022-08-17T12:50:44.422Z,27.20
2022-08-17T13:00:57.021Z,27.60
2022-08-17T13:11:03.473Z,28.00
2022-08-17T13:21:22.163Z,28.40
2022-08-17T13:31:51.837Z,28.30
2022-08-17T13:41:58.192Z,28.80
2022-08-17T13:52:02.111Z,29.20
2022-08-17T14:02:11.498Z,29.20
2022-08-17T14:12:19.405Z,29.00
2022-08-17T14:22:30.475Z,28.60
2022-08-17T14:32:38.371Z,29.00
2022-08-17T14:42:46.186Z,29.20
2022-08-17T14:52:50.561Z,29.50
2022-08-17T15:02:58.472Z,29.80
2022-08-17T15:13:02.871Z,29.70
2022-08-17T15:23:09.563Z,29.60
2022-08-17T15:33:18.833Z,29.50
2022-08-17T15:43:28.231Z,29.50
2022-08-17T15:53:33.250Z,29.60
2022-08-17T16:04:01.496Z,29.80
2022-08-17T16:14:03.090Z,29.90
2022-08-17T16:24:13.626Z,30.30
2022-08-17T16:34:19.063Z,30.50
2022-08-17T16:44:25.665Z,31.10
2022-08-17T16:54:29.603Z,31.10
2022-08-17T17:04:38.217Z,30.30
2022-08-17T17:14:47.250Z,30.00
2022-08-17T17:25:05.382Z,30.40
2022-08-17T17:35:17.510Z,32.60
2022-08-17T17:45:26.712Z,33.60
2022-08-17T17:55:59.470Z,32.80
2022-08-17T18:06:22.469Z,33.00
2022-08-17T18:16:31.915Z,31.40
2022-08-17T18:26:53.485Z,29.40
2022-08-17T18:37:00.010Z,28.30
2022-08-17T18:47:16.299Z,27.30
2022-08-17T18:57:31.570Z,26.70
2022-08-17T19:07:40.033Z,26.20
2022-08-17T19:17:50.229Z,25.70
2022-08-17T19:28:01.063Z,25.30
2022-08-17T19:38:15.546Z,24.90
2022-08-17T19:48:37.191Z,24.50
2022-08-17T19:58:57.805Z,24.30
2022-08-17T20:09:15.223Z,24.00
2022-08-17T20:19:28.995Z,23.60
2022-08-17T20:30:09.302Z,23.50
2022-08-17T20:40:22.983Z,23.30
2022-08-17T20:50:33.392Z,22.70
2022-08-17T21:00:47.069Z,22.50
2022-08-17T21:10:55.046Z,22.40
2022-08-17T21:21:16.891Z,22.30
2022-08-17T21:31:43.056Z,22.20
2022-08-17T21:41:52.931Z,22.40
2022-08-17T21:51:58.154Z,22.60
2022-08-17T22:02:05.633Z,22.60
2022-08-17T22:12:16.123Z,22.60
2022-08-17T22:22:58.773Z,22.50
2022-08-17T22:33:37.435Z,22.40
2022-08-17T22:43:43.760Z,22.40
2022-08-17T22:54:10.507Z,22.40
2022-08-17T23:04:33.487Z,22.00
2022-08-17T23:14:42.384Z,21.80
2022-08-17T23:24:49.915Z,21.60
2022-08-17T23:34:55.021Z,21.40
2022-08-17T23:44:58.828Z,21.20
2022-08-17T23:55:05.823Z,21.20
